Flight Track Log - Related Links

Times and Time Zones

All times are in EST time to prevent confusion due to time zone crossing. See the TFX114 flight status page for this flight to view local times or setup timezone preferences in your user account.

Time Position Orientation Groundspeed Altitude Reporting Facility
EST Latitude Longitude Course Direction KTS MPH feet Rate Location/Type
Mon 06:30:37 PM -28.8128 153.5965 335° Northwest 145 167 2,300  Level Aus ATC (RADAR)
Mon 06:31:02 PM -28.7974 153.5883 335° Northwest 141 162 3,400 2,215 Climbing Aus ATC (RADAR)
Mon 06:31:42 PM -28.7735 153.5764 336° Northwest 141 162 4,700 1,642 Climbing Aus ATC (RADAR)
Mon 06:32:37 PM -28.7353 153.5691 350° North 159 183 6,000 929 Climbing Aus ATC (RADAR)
Mon 06:33:06 PM -28.7066 153.5666 356° North 198 228 6,000  Level Aus ATC (RADAR)
Mon 06:33:42 PM -28.6720 153.5637 356° North 211 243 6,000  Level Aus ATC (RADAR)
Mon 06:34:21 PM -28.6319 153.5605 356° North 216 249 6,000 -81 Level Aus ATC (RADAR)
Mon 06:34:56 PM -28.5957 153.5573 356° North 223 257 5,900  Descending Aus ATC (RADAR)
Mon 06:35:46 PM -28.5468 153.5697 13° North 212 244 6,000 -320 Climbing Aus ATC (RADAR)
Mon 06:36:11 PM -28.5239 153.5790 20° North 211 243 5,500 -1,400 Descending Aus ATC (RADAR)
Mon 06:36:46 PM -28.4898 153.5891 15° North 217 250 4,600 -700 Descending Aus ATC (RADAR)
Mon 06:38:11 PM -28.4110 153.6082 12° North 197 227 4,100 -300 Descending Aus ATC (RADAR)
Mon 06:38:26 PM -28.3992 153.6120 16° North 185 213 4,100 -1,320 Level Aus ATC (RADAR)
Mon 06:39:01 PM -28.3701 153.6201 14° North 186 214 3,000 -733 Descending Aus ATC (RADAR)
Mon 06:39:56 PM -28.3292 153.6190 359° North 160 184 3,000 -141 Level Aus ATC (RADAR)
Mon 06:40:26 PM -28.3097 153.6105 339° North 152 175 2,800 -480 Descending Aus ATC (RADAR)
Mon 06:41:11 PM -28.2814 153.5939 333° Northwest 149 171 2,400 -320 Descending Aus ATC (RADAR)
Mon 06:41:41 PM -28.2662 153.5810 323° Northwest 138 159 2,400 -525 Level Aus ATC (RADAR)
Mon 06:42:31 PM -28.2405 153.5595 324° Northwest 141 162 1,700 -776 Descending Aus ATC (RADAR)
Mon 06:43:06 PM -28.2236 153.5427 319° Northwest 136 157 1,300 -771 Descending Aus ATC (RADAR)
Mon 06:43:41 PM -28.2059 153.5318 332° Northwest 125 144 800 -714 Descending Aus ATC (RADAR)
Mon 06:44:30 PM -28.1832 153.5175 331° Northwest 110 127 300 -568 Descending Aus ATC (RADAR)
Mon 06:44:55 PM -28.1726 153.5106 330° Northwest 105 121 100 -200 Descending Aus ATC (RADAR)
Mon 06:45:30 PM -28.1622 153.5039 331° Northwest 57 66 100  Level Aus ATC (RADAR)
Mon 06:46:10 PM -28.1643 153.5063 135° Southeast 14 16 100  Level Aus ATC (RADAR)
Mon 06:46:20 PM -28.1646 153.5069 116° Southeast 14 16 100  Level Aus ATC (RADAR)

Login

Don't have an account? Register now (free) for customized features, flight alerts, and more!